Time;durP1;ratioP1;P1;durP2;ratioP2;P2;SDS_P1;SDS_P2;PMS_P1;PMS_P2;Temp;Humidity;BMP_temperature;BMP_pressure;BME280_temperature;BME280_humidity;BME280_pressure;Samples;Min_cycle;Max_cycle;Signal;HPM_P1;HPM_P2
2021/12/31 00:02:17;;;;;;;7.65;4.03;;;;;;;;;;5055731;27;99390;-77
2021/12/31 00:04:44;;;;;;;10.10;4.55;;;;;;;;;;5037136;27;102965;-76
2021/12/31 00:07:10;;;;;;;13.55;4.20;;;;;;;;;;5055124;27;99744;-75
2021/12/31 00:09:37;;;;;;;9.80;4.63;;;;;;;;;;5059253;27;98421;-76
2021/12/31 00:12:05;;;;;;;8.25;4.40;;;;;;;;;;5055405;27;99470;-76
2021/12/31 00:14:31;;;;;;;6.43;4.40;;;;;;;;;;5037225;27;98434;-75
2021/12/31 00:16:57;;;;;;;7.90;4.50;;;;;;;;;;5055659;27;100369;-75
2021/12/31 00:19:26;;;;;;;11.68;4.30;;;;;;;;;;5055366;27;99590;-76
2021/12/31 00:21:52;;;;;;;10.90;4.88;;;;;;;;;;5055666;27;97624;-76
2021/12/31 00:24:19;;;;;;;6.90;3.92;;;;;;;;;;5055388;27;98796;-76
2021/12/31 00:26:45;;;;;;;7.80;4.20;;;;;;;;;;5055044;27;99703;-76
2021/12/31 00:29:12;;;;;;;9.98;4.10;;;;;;;;;;5055213;27;99134;-76
2021/12/31 00:31:38;;;;;;;7.30;4.10;;;;;;;;;;5058341;27;99640;-75
2021/12/31 00:34:05;;;;;;;8.98;4.05;;;;;;;;;;5055381;27;98252;-76
2021/12/31 00:36:38;;;;;;;11.02;4.00;;;;;;;;;;5055147;27;99446;-75
2021/12/31 00:39:04;;;;;;;8.90;3.95;;;;;;;;;;5036818;27;100861;-75
2021/12/31 00:41:31;;;;;;;6.72;3.55;;;;;;;;;;5055258;27;98361;-75
2021/12/31 00:43:57;;;;;;;11.45;4.00;;;;;;;;;;5055281;27;99353;-76
2021/12/31 00:46:23;;;;;;;6.90;3.53;;;;;;;;;;5059171;27;99431;-76
2021/12/31 00:48:50;;;;;;;5.85;3.50;;;;;;;;;;5064048;27;98240;-75
2021/12/31 00:51:16;;;;;;;10.52;3.70;;;;;;;;;;5062081;27;99323;-76
2021/12/31 00:53:42;;;;;;;8.10;3.53;;;;;;;;;;5064264;27;100757;-76
2021/12/31 00:56:09;;;;;;;9.43;3.65;;;;;;;;;;5060629;27;99376;-76
2021/12/31 00:58:35;;;;;;;6.32;3.83;;;;;;;;;;5055189;27;99828;-76
2021/12/31 01:01:02;;;;;;;7.07;3.55;;;;;;;;;;5054998;27;98624;-76
2021/12/31 01:03:28;;;;;;;7.90;3.63;;;;;;;;;;5054490;27;99221;-75
2021/12/31 01:05:54;;;;;;;5.07;3.55;;;;;;;;;;5054659;27;99731;-75
2021/12/31 01:08:22;;;;;;;6.47;3.85;;;;;;;;;;5054701;27;98410;-75
2021/12/31 01:10:50;;;;;;;6.18;3.40;;;;;;;;;;5055180;27;99015;-76
2021/12/31 01:13:27;;;;;;;7.22;3.40;;;;;;;;;;5054490;27;99214;-75
2021/12/31 01:15:58;;;;;;;11.43;3.35;;;;;;;;;;5057355;27;98303;-76
2021/12/31 01:19:44;;;;;;;5.38;3.25;;;;;;;;;;5053965;27;100456;-76
2021/12/31 01:21:11;;;;;;;5.20;3.17;;;;;;;;;;5054429;27;98422;-76
2021/12/31 01:23:37;;;;;;;6.68;3.08;;;;;;;;;;5036756;27;99341;-76
2021/12/31 01:26:04;;;;;;;6.75;2.92;;;;;;;;;;5054207;27;100215;-76
2021/12/31 01:28:30;;;;;;;6.65;3.28;;;;;;;;;;5054215;27;98308;-75
2021/12/31 01:30:57;;;;;;;5.50;3.22;;;;;;;;;;5054676;27;99374;-76
2021/12/31 01:33:23;;;;;;;7.28;3.00;;;;;;;;;;5054130;27;99568;-76
2021/12/31 01:35:50;;;;;;;5.47;3.28;;;;;;;;;;5058605;27;97649;-76
2021/12/31 01:38:16;;;;;;;5.22;2.90;;;;;;;;;;5054012;27;99537;-75
2021/12/31 01:40:43;;;;;;;10.55;2.90;;;;;;;;;;5054536;27;98353;-75
2021/12/31 01:43:11;;;;;;;6.07;2.65;;;;;;;;;;5053383;27;99729;-75
2021/12/31 01:45:44;;;;;;;7.78;3.10;;;;;;;;;;5068756;27;100756;-76
2021/12/31 01:48:23;;;;;;;7.05;3.03;;;;;;;;;;5074670;27;98493;-74
2021/12/31 01:50:49;;;;;;;5.47;2.90;;;;;;;;;;5074860;27;99488;-75
2021/12/31 01:53:16;;;;;;;5.57;3.00;;;;;;;;;;5074400;27;99501;-75
2021/12/31 01:55:43;;;;;;;3.95;2.58;;;;;;;;;;5074233;27;98429;-74
2021/12/31 01:58:11;;;;;;;7.57;3.25;;;;;;;;;;5077519;27;99443;-74
2021/12/31 02:00:38;;;;;;;8.60;3.22;;;;;;;;;;5075014;27;98352;-74
2021/12/31 02:03:05;;;;;;;5.45;2.83;;;;;;;;;;5074635;27;98670;-74
2021/12/31 02:05:32;;;;;;;10.00;3.10;;;;;;;;;;5073906;27;99022;-74
2021/12/31 02:07:59;;;;;;;9.23;3.22;;;;;;;;;;5073752;27;99130;-74
2021/12/31 02:10:25;;;;;;;5.15;3.00;;;;;;;;;;5074175;27;100103;-73
2021/12/31 02:12:52;;;;;;;5.20;3.10;;;;;;;;;;5073718;27;99693;-74
2021/12/31 02:15:19;;;;;;;5.50;3.50;;;;;;;;;;5073887;27;98449;-74
2021/12/31 02:17:47;;;;;;;5.70;2.75;;;;;;;;;;5074461;27;99406;-74
2021/12/31 02:20:15;;;;;;;6.40;3.35;;;;;;;;;;5076440;27;99118;-74
2021/12/31 02:22:54;;;;;;;7.47;3.03;;;;;;;;;;5073231;27;98905;-74
2021/12/31 02:25:23;;;;;;;7.28;2.83;;;;;;;;;;5074100;27;99149;-74
2021/12/31 02:27:50;;;;;;;9.13;3.50;;;;;;;;;;5055727;27;98788;-74
2021/12/31 02:30:16;;;;;;;9.55;2.90;;;;;;;;;;5074199;27;99816;-74
2021/12/31 02:32:42;;;;;;;6.80;2.70;;;;;;;;;;5073142;27;99998;-75
2021/12/31 02:35:10;;;;;;;8.05;2.85;;;;;;;;;;5073674;27;98895;-75
2021/12/31 02:37:36;;;;;;;8.63;2.97;;;;;;;;;;5073738;27;99641;-74
2021/12/31 02:40:04;;;;;;;5.85;2.90;;;;;;;;;;5073637;27;99552;-75
2021/12/31 02:42:31;;;;;;;5.60;2.88;;;;;;;;;;5077088;27;98560;-74
2021/12/31 02:44:57;;;;;;;4.95;2.88;;;;;;;;;;5073363;27;99609;-74
2021/12/31 02:47:23;;;;;;;7.18;2.70;;;;;;;;;;5073953;27;98409;-75
2021/12/31 02:49:50;;;;;;;4.88;2.85;;;;;;;;;;5074009;27;99698;-75
2021/12/31 02:52:17;;;;;;;11.55;2.80;;;;;;;;;;5055588;27;99726;-75
2021/12/31 02:54:47;;;;;;;5.05;2.50;;;;;;;;;;5073669;27;98424;-74
2021/12/31 02:57:15;;;;;;;4.87;2.70;;;;;;;;;;5073298;27;99776;-75
2021/12/31 02:59:43;;;;;;;4.85;2.42;;;;;;;;;;5073346;27;99698;-74
2021/12/31 03:02:09;;;;;;;3.55;2.88;;;;;;;;;;5073717;27;98921;-74
2021/12/31 03:04:38;;;;;;;5.57;2.72;;;;;;;;;;5058258;27;99976;-75
2021/12/31 03:07:05;;;;;;;5.85;2.58;;;;;;;;;;5073643;27;98458;-75
2021/12/31 03:09:32;;;;;;;6.32;2.50;;;;;;;;;;5073595;27;99754;-75
2021/12/31 03:11:59;;;;;;;5.38;2.50;;;;;;;;;;5073421;27;99479;-74
2021/12/31 03:14:26;;;;;;;7.15;2.58;;;;;;;;;;5073845;27;97709;-75
2021/12/31 03:16:53;;;;;;;4.30;2.50;;;;;;;;;;5073162;27;98438;-76
2021/12/31 03:19:20;;;;;;;5.53;2.45;;;;;;;;;;5072418;27;100033;-75
2021/12/31 03:21:47;;;;;;;4.18;2.50;;;;;;;;;;5072939;27;99162;-75
2021/12/31 03:24:13;;;;;;;3.50;2.63;;;;;;;;;;5076198;27;100216;-75
2021/12/31 03:26:40;;;;;;;5.28;2.50;;;;;;;;;;5073331;27;98434;-75
2021/12/31 03:29:06;;;;;;;8.00;3.00;;;;;;;;;;5073313;27;99589;-75
2021/12/31 03:31:33;;;;;;;4.38;2.60;;;;;;;;;;5072614;27;99611;-75
2021/12/31 03:33:59;;;;;;;5.95;2.80;;;;;;;;;;5076668;27;98297;-76
2021/12/31 03:36:25;;;;;;;9.57;3.10;;;;;;;;;;5077125;27;99264;-75
2021/12/31 03:38:52;;;;;;;5.88;3.00;;;;;;;;;;5076864;27;98828;-76
2021/12/31 03:41:18;;;;;;;5.47;3.33;;;;;;;;;;5076735;27;98544;-75
2021/12/31 03:43:44;;;;;;;8.13;3.05;;;;;;;;;;5076574;27;99323;-75
2021/12/31 03:46:11;;;;;;;9.57;3.60;;;;;;;;;;5078893;27;100001;-76
2021/12/31 03:48:37;;;;;;;7.05;3.30;;;;;;;;;;5076626;27;100168;-75
2021/12/31 03:51:04;;;;;;;5.72;3.00;;;;;;;;;;5076056;27;99843;-76
2021/12/31 03:53:30;;;;;;;5.63;2.97;;;;;;;;;;5076405;27;98327;-76
2021/12/31 03:55:56;;;;;;;10.90;3.40;;;;;;;;;;5076459;27;99262;-75
2021/12/31 03:58:22;;;;;;;5.95;3.53;;;;;;;;;;5076079;27;99515;-75
2021/12/31 04:00:49;;;;;;;9.50;3.40;;;;;;;;;;5058243;27;98360;-76
2021/12/31 04:03:16;;;;;;;7.05;3.10;;;;;;;;;;5077011;27;99666;-76
2021/12/31 04:05:43;;;;;;;7.65;3.30;;;;;;;;;;5075874;27;99910;-76
2021/12/31 04:08:10;;;;;;;5.43;2.70;;;;;;;;;;5079729;27;98715;-75
2021/12/31 04:10:36;;;;;;;6.05;3.40;;;;;;;;;;5075445;27;99991;-75
2021/12/31 04:13:02;;;;;;;5.47;3.50;;;;;;;;;;5058276;27;98420;-76
2021/12/31 04:15:29;;;;;;;6.35;3.10;;;;;;;;;;5075540;27;98911;-76
2021/12/31 04:17:55;;;;;;;6.43;3.13;;;;;;;;;;5075735;27;99260;-75
2021/12/31 04:20:33;;;;;;;5.65;3.13;;;;;;;;;;5076088;27;98355;-76
2021/12/31 04:23:02;;;;;;;6.50;2.97;;;;;;;;;;5075922;27;99366;-76
2021/12/31 04:25:28;;;;;;;5.95;2.97;;;;;;;;;;5075522;27;99604;-76
2021/12/31 04:27:55;;;;;;;7.28;2.78;;;;;;;;;;5076181;27;97791;-76
2021/12/31 04:30:21;;;;;;;7.30;3.38;;;;;;;;;;5079083;27;98672;-75
2021/12/31 04:32:48;;;;;;;6.88;2.92;;;;;;;;;;5076247;27;98216;-76
2021/12/31 04:35:17;;;;;;;6.20;3.10;;;;;;;;;;5075511;27;99379;-76
2021/12/31 04:37:43;;;;;;;9.25;3.20;;;;;;;;;;5075382;27;99661;-76
2021/12/31 04:40:10;;;;;;;7.55;3.22;;;;;;;;;;5075885;27;98430;-76
2021/12/31 04:42:41;;;;;;;6.32;2.60;;;;;;;;;;5075420;27;99675;-76
2021/12/31 04:45:11;;;;;;;5.40;2.63;;;;;;;;;;5074150;27;99853;-77
2021/12/31 04:47:39;;;;;;;5.90;3.05;;;;;;;;;;5075961;27;98414;-76
2021/12/31 04:50:05;;;;;;;8.30;2.97;;;;;;;;;;5075686;27;99912;-76
2021/12/31 04:52:32;;;;;;;7.53;2.80;;;;;;;;;;5079116;27;99147;-76
2021/12/31 04:54:58;;;;;;;9.30;2.80;;;;;;;;;;5057147;27;99818;-77
2021/12/31 04:57:26;;;;;;;4.82;2.97;;;;;;;;;;5074904;27;100309;-76
2021/12/31 04:59:52;;;;;;;6.65;2.67;;;;;;;;;;5075072;27;99707;-76
2021/12/31 05:02:19;;;;;;;9.07;2.78;;;;;;;;;;5057087;27;100969;-76
2021/12/31 05:04:45;;;;;;;3.88;2.70;;;;;;;;;;5075076;27;99522;-76
2021/12/31 05:07:12;;;;;;;5.68;2.60;;;;;;;;;;5075539;27;98482;-75
2021/12/31 05:09:38;;;;;;;4.43;2.42;;;;;;;;;;5074751;27;99716;-76
2021/12/31 05:12:05;;;;;;;5.82;2.70;;;;;;;;;;5074998;27;99693;-76
2021/12/31 05:14:31;;;;;;;7.80;2.95;;;;;;;;;;5078305;27;98477;-76
2021/12/31 05:16:58;;;;;;;5.25;2.55;;;;;;;;;;5075244;27;98843;-75
2021/12/31 05:19:25;;;;;;;3.53;2.65;;;;;;;;;;5075207;27;98398;-76
2021/12/31 05:21:51;;;;;;;5.93;2.70;;;;;;;;;;5056757;27;100633;-76
2021/12/31 05:24:17;;;;;;;6.00;2.17;;;;;;;;;;5073898;27;100335;-75
2021/12/31 05:26:44;;;;;;;5.10;2.65;;;;;;;;;;5074969;27;99056;-76
2021/12/31 05:29:11;;;;;;;6.10;2.80;;;;;;;;;;5075160;27;99355;-75
2021/12/31 05:31:37;;;;;;;5.78;2.63;;;;;;;;;;5081920;27;99994;-76
2021/12/31 05:34:04;;;;;;;6.95;2.58;;;;;;;;;;5086836;27;98362;-77
2021/12/31 05:36:30;;;;;;;6.45;2.80;;;;;;;;;;5079259;27;99711;-76
2021/12/31 05:38:57;;;;;;;3.83;2.80;;;;;;;;;;5079932;27;98393;-76
2021/12/31 05:41:23;;;;;;;7.15;2.85;;;;;;;;;;5059428;27;99193;-77
2021/12/31 05:43:49;;;;;;;3.60;2.55;;;;;;;;;;5074300;27;100132;-76
2021/12/31 05:46:16;;;;;;;5.25;2.78;;;;;;;;;;5074834;27;98276;-77
2021/12/31 05:48:43;;;;;;;4.28;2.50;;;;;;;;;;5074211;27;99455;-76
2021/12/31 05:51:09;;;;;;;5.75;2.88;;;;;;;;;;5074404;27;99664;-76
2021/12/31 05:53:36;;;;;;;4.18;2.42;;;;;;;;;;5073985;27;98438;-75
2021/12/31 05:56:02;;;;;;;3.28;2.58;;;;;;;;;;5077241;27;99478;-77
2021/12/31 05:58:29;;;;;;;5.00;2.78;;;;;;;;;;5074631;27;98298;-77
2021/12/31 06:00:55;;;;;;;3.38;2.55;;;;;;;;;;5074504;27;99337;-76
2021/12/31 06:03:22;;;;;;;4.82;2.60;;;;;;;;;;5073937;27;99948;-76
2021/12/31 06:05:48;;;;;;;4.80;2.72;;;;;;;;;;5074789;27;97704;-78
2021/12/31 06:08:14;;;;;;;4.38;2.65;;;;;;;;;;5073973;27;99245;-76
2021/12/31 06:10:41;;;;;;;8.00;2.53;;;;;;;;;;5073973;27;99573;-75
2021/12/31 06:13:07;;;;;;;5.85;2.83;;;;;;;;;;5055393;27;99183;-77
2021/12/31 06:15:34;;;;;;;5.47;2.50;;;;;;;;;;5074004;27;99989;-76
2021/12/31 06:18:00;;;;;;;4.38;2.92;;;;;;;;;;5077311;27;99638;-76
2021/12/31 06:20:28;;;;;;;5.22;2.72;;;;;;;;;;5074128;27;99651;-76
2021/12/31 06:22:58;;;;;;;5.50;2.35;;;;;;;;;;5073418;27;99480;-76
2021/12/31 06:25:26;;;;;;;5.72;2.35;;;;;;;;;;5055643;27;98369;-76
2021/12/31 06:27:52;;;;;;;6.68;2.22;;;;;;;;;;5073797;27;99948;-75
2021/12/31 06:30:19;;;;;;;2.70;2.20;;;;;;;;;;5074320;27;98987;-76
2021/12/31 06:32:45;;;;;;;4.32;2.67;;;;;;;;;;5074213;27;98432;-75
2021/12/31 06:35:12;;;;;;;6.05;2.85;;;;;;;;;;5073849;27;99814;-76
2021/12/31 06:37:38;;;;;;;3.13;2.15;;;;;;;;;;5072926;27;100415;-75
2021/12/31 06:40:07;;;;;;;3.38;2.65;;;;;;;;;;5077472;27;98398;-76
2021/12/31 06:42:34;;;;;;;4.22;2.60;;;;;;;;;;5073480;27;99583;-75
2021/12/31 06:45:00;;;;;;;5.10;2.80;;;;;;;;;;5073967;27;99356;-76
2021/12/31 06:47:27;;;;;;;4.20;2.40;;;;;;;;;;5073850;27;99419;-76
2021/12/31 06:49:59;;;;;;;4.32;2.47;;;;;;;;;;5073017;27;100047;-76
2021/12/31 06:52:26;;;;;;;6.75;3.53;;;;;;;;;;5074214;27;98459;-75
2021/12/31 06:54:52;;;;;;;6.20;3.15;;;;;;;;;;5074316;27;99606;-74
2021/12/31 06:57:18;;;;;;;10.20;3.33;;;;;;;;;;5073262;27;99686;-75
2021/12/31 06:59:45;;;;;;;7.10;3.47;;;;;;;;;;5073788;27;98324;-76
2021/12/31 07:02:11;;;;;;;5.55;3.33;;;;;;;;;;5075760;27;99723;-74
2021/12/31 07:04:38;;;;;;;4.85;3.00;;;;;;;;;;5073481;27;98383;-76
2021/12/31 07:07:04;;;;;;;5.45;3.08;;;;;;;;;;5074114;27;99352;-74
2021/12/31 07:09:30;;;;;;;5.40;3.17;;;;;;;;;;5076911;27;99133;-75
2021/12/31 07:12:00;;;;;;;3.47;2.97;;;;;;;;;;5077231;27;98328;-74
2021/12/31 07:14:27;;;;;;;6.00;3.30;;;;;;;;;;5076807;27;99694;-74
2021/12/31 07:16:54;;;;;;;6.03;3.47;;;;;;;;;;5076446;27;99689;-74
2021/12/31 07:19:20;;;;;;;5.10;3.10;;;;;;;;;;5077642;27;97647;-75
2021/12/31 07:21:47;;;;;;;3.72;3.00;;;;;;;;;;5077046;27;98921;-75
2021/12/31 07:24:13;;;;;;;4.75;3.00;;;;;;;;;;5062379;27;98731;-74
2021/12/31 07:26:40;;;;;;;3.92;3.15;;;;;;;;;;5076464;27;99579;-76
2021/12/31 07:29:06;;;;;;;4.78;2.97;;;;;;;;;;5076806;27;99471;-76
2021/12/31 07:31:32;;;;;;;5.95;2.90;;;;;;;;;;5076496;27;98318;-75
2021/12/31 07:33:59;;;;;;;4.32;3.10;;;;;;;;;;5076910;27;99323;-75
2021/12/31 07:36:29;;;;;;;6.60;3.17;;;;;;;;;;5076364;27;99956;-76
2021/12/31 07:39:07;;;;;;;6.38;3.28;;;;;;;;;;5076660;27;98213;-77
2021/12/31 07:41:35;;;;;;;5.00;2.97;;;;;;;;;;5076863;27;98899;-76
2021/12/31 07:44:01;;;;;;;5.20;3.42;;;;;;;;;;5009694;27;99180;-77
2021/12/31 07:46:27;;;;;;;3.95;3.00;;;;;;;;;;5076456;27;99245;-75
2021/12/31 07:48:54;;;;;;;5.05;3.22;;;;;;;;;;5075936;27;99422;-76
2021/12/31 07:51:20;;;;;;;6.85;3.25;;;;;;;;;;5075998;27;99114;-76
2021/12/31 07:53:46;;;;;;;4.88;3.35;;;;;;;;;;5076468;27;100124;-73
2021/12/31 07:56:14;;;;;;;5.47;3.42;;;;;;;;;;5075983;27;99844;-75
2021/12/31 07:58:40;;;;;;;4.32;2.95;;;;;;;;;;5076202;27;98722;-75
2021/12/31 08:01:06;;;;;;;7.07;3.58;;;;;;;;;;5076264;27;99731;-77
2021/12/31 08:03:35;;;;;;;4.10;3.22;;;;;;;;;;5075914;27;100111;-77
2021/12/31 08:06:01;;;;;;;5.70;3.70;;;;;;;;;;5079521;27;98436;-77
2021/12/31 08:08:28;;;;;;;5.93;3.22;;;;;;;;;;5076444;27;99236;-77
2021/12/31 08:10:54;;;;;;;8.20;3.45;;;;;;;;;;5076412;27;98374;-76
2021/12/31 08:13:23;;;;;;;5.43;3.10;;;;;;;;;;5075827;27;99397;-75
2021/12/31 08:15:49;;;;;;;8.27;3.42;;;;;;;;;;5075276;27;99949;-75
2021/12/31 08:18:16;;;;;;;9.65;3.60;;;;;;;;;;5076229;27;98262;-75
2021/12/31 08:20:42;;;;;;;6.20;2.80;;;;;;;;;;5075844;27;99797;-78
2021/12/31 08:23:09;;;;;;;3.55;3.17;;;;;;;;;;5057416;27;103562;-76
2021/12/31 08:25:36;;;;;;;5.43;3.58;;;;;;;;;;5075728;27;98409;-76
2021/12/31 08:28:03;;;;;;;8.80;3.67;;;;;;;;;;5078897;27;99865;-76
2021/12/31 08:31:06;;;;;;;9.52;3.60;;;;;;;;;;5075916;27;98522;-85
2021/12/31 08:33:37;;;;;;;4.50;3.60;;;;;;;;;;5042032;27;102343;-76
2021/12/31 08:36:03;;;;;;;4.63;3.40;;;;;;;;;;5075364;27;99514;-76
2021/12/31 08:38:29;;;;;;;6.68;3.80;;;;;;;;;;5075652;27;98401;-77
2021/12/31 08:40:57;;;;;;;8.15;3.45;;;;;;;;;;5093963;27;99056;-78
2021/12/31 08:43:24;;;;;;;4.80;3.65;;;;;;;;;;5075273;27;99202;-76
2021/12/31 08:45:51;;;;;;;4.43;3.40;;;;;;;;;;5058038;27;98307;-77
2021/12/31 08:48:19;;;;;;;6.28;3.40;;;;;;;;;;5075867;27;98823;-76
2021/12/31 08:50:46;;;;;;;4.85;3.70;;;;;;;;;;5078482;27;99015;-77
2021/12/31 08:53:12;;;;;;;5.80;3.50;;;;;;;;;;5075498;27;100129;-75
2021/12/31 08:55:39;;;;;;;8.07;3.97;;;;;;;;;;5074995;27;99577;-77
2021/12/31 08:58:06;;;;;;;5.20;3.55;;;;;;;;;;5057656;27;97668;-77
2021/12/31 09:00:32;;;;;;;4.65;4.13;;;;;;;;;;5075719;27;98322;-76
2021/12/31 09:02:58;;;;;;;7.03;3.75;;;;;;;;;;5075136;27;99653;-77
2021/12/31 09:05:25;;;;;;;42.55;29.02;;;;;;;;;;5074318;27;99129;-77
2021/12/31 09:07:51;;;;;;;5.22;4.22;;;;;;;;;;5074628;27;99657;-78
2021/12/31 09:10:19;;;;;;;7.13;5.03;;;;;;;;;;5057007;27;99494;-78
2021/12/31 09:12:46;;;;;;;5.68;3.67;;;;;;;;;;5078635;27;98209;-77
2021/12/31 09:15:13;;;;;;;6.40;3.60;;;;;;;;;;5074281;27;99977;-78
2021/12/31 09:17:40;;;;;;;6.75;4.20;;;;;;;;;;5057586;27;98233;-77
2021/12/31 09:20:06;;;;;;;6.07;3.67;;;;;;;;;;5075062;27;99446;-77
2021/12/31 09:22:33;;;;;;;7.18;4.40;;;;;;;;;;5075331;27;99003;-78
2021/12/31 09:24:59;;;;;;;6.97;4.63;;;;;;;;;;5074952;27;98677;-78
2021/12/31 09:27:28;;;;;;;5.13;4.10;;;;;;;;;;5074734;27;99758;-78
2021/12/31 09:29:56;;;;;;;4.00;3.58;;;;;;;;;;5073528;27;99862;-77
2021/12/31 09:32:22;;;;;;;4.50;3.85;;;;;;;;;;5074778;27;98442;-77
2021/12/31 09:34:49;;;;;;;8.02;4.38;;;;;;;;;;5077493;27;99832;-77
2021/12/31 09:37:15;;;;;;;5.78;3.97;;;;;;;;;;5074894;27;98383;-77
2021/12/31 09:39:42;;;;;;;9.82;4.20;;;;;;;;;;5074715;27;99680;-77
2021/12/31 09:42:08;;;;;;;5.13;3.80;;;;;;;;;;5081752;27;100176;-77
2021/12/31 09:44:35;;;;;;;6.40;4.32;;;;;;;;;;5095733;27;98301;-78
2021/12/31 09:47:07;;;;;;;6.72;4.00;;;;;;;;;;5095346;27;99379;-77
2021/12/31 09:49:34;;;;;;;7.00;3.80;;;;;;;;;;5103580;27;99484;-76
2021/12/31 09:52:01;;;;;;;6.80;4.45;;;;;;;;;;5087817;27;98634;-77
2021/12/31 09:54:28;;;;;;;7.68;4.22;;;;;;;;;;5105814;27;99525;-78
2021/12/31 09:56:54;;;;;;;9.90;4.70;;;;;;;;;;5105216;27;98412;-79
2021/12/31 09:59:23;;;;;;;6.75;4.53;;;;;;;;;;5097883;27;98539;-79
2021/12/31 10:01:51;;;;;;;6.32;3.88;;;;;;;;;;5096729;27;99306;-79
2021/12/31 10:04:17;;;;;;;8.63;4.40;;;;;;;;;;5078397;27;98437;-78
2021/12/31 10:07:05;;;;;;;7.10;4.40;;;;;;;;;;5095265;27;99398;-79
2021/12/31 10:09:32;;;;;;;7.43;4.03;;;;;;;;;;5095107;27;99851;-77
2021/12/31 10:12:06;;;;;;;9.52;4.07;;;;;;;;;;5076887;27;97745;-77
2021/12/31 10:14:33;;;;;;;7.35;6.63;;;;;;;;;;5094689;27;98584;-79
2021/12/31 10:17:00;;;;;;;13.13;11.65;;;;;;;;;;5097888;27;99947;-79
2021/12/31 10:19:26;;;;;;;11.75;9.60;;;;;;;;;;5093871;27;99653;-79
2021/12/31 10:21:54;;;;;;;14.63;9.55;;;;;;;;;;5094588;27;99247;-80
2021/12/31 10:24:24;;;;;;;8.50;7.70;;;;;;;;;;5094872;27;98592;-78
2021/12/31 10:26:52;;;;;;;8.00;6.60;;;;;;;;;;5094336;27;98893;-76
2021/12/31 10:29:19;;;;;;;8.82;5.15;;;;;;;;;;5094153;27;99454;-76
2021/12/31 10:31:47;;;;;;;6.65;5.00;;;;;;;;;;5094585;27;100051;-77
2021/12/31 10:34:32;;;;;;;5.30;4.78;;;;;;;;;;5095034;27;99832;-79
2021/12/31 10:37:04;;;;;;;6.93;4.90;;;;;;;;;;5094742;27;99399;-77
2021/12/31 10:39:37;;;;;;;9.80;4.82;;;;;;;;;;5097870;27;98341;-77
2021/12/31 10:42:05;;;;;;;11.23;4.97;;;;;;;;;;5092997;27;99988;-77
2021/12/31 10:44:48;;;;;;;7.40;4.53;;;;;;;;;;5094110;27;99855;-77
2021/12/31 10:47:15;;;;;;;6.15;4.70;;;;;;;;;;5094372;27;99960;-77
2021/12/31 10:50:00;;;;;;;5.18;4.35;;;;;;;;;;5093669;27;100184;-77
2021/12/31 10:52:35;;;;;;;7.35;4.28;;;;;;;;;;5094127;27;98618;-76
2021/12/31 10:55:18;;;;;;;10.73;4.88;;;;;;;;;;5075727;27;100431;-76
2021/12/31 10:57:57;;;;;;;7.57;4.45;;;;;;;;;;5093927;27;100080;-77
2021/12/31 11:00:26;;;;;;;6.93;4.40;;;;;;;;;;5094318;27;98380;-77
2021/12/31 11:02:53;;;;;;;6.20;4.47;;;;;;;;;;5079907;27;99390;-77
2021/12/31 11:05:20;;;;;;;10.13;4.78;;;;;;;;;;5076294;27;98542;-76
2021/12/31 11:07:47;;;;;;;5.93;4.43;;;;;;;;;;5094229;27;99122;-77
2021/12/31 11:10:37;;;;;;;6.85;4.68;;;;;;;;;;5074396;27;101463;-76
2021/12/31 11:13:09;;;;;;;5.63;4.40;;;;;;;;;;5094331;27;98267;-76
2021/12/31 11:15:35;;;;;;;8.13;4.43;;;;;;;;;;5093904;27;99647;-77
2021/12/31 11:18:02;;;;;;;9.00;4.72;;;;;;;;;;5093581;27;99533;-77
2021/12/31 11:20:28;;;;;;;8.60;5.93;;;;;;;;;;5094193;27;98297;-76
2021/12/31 11:22:55;;;;;;;9.35;5.82;;;;;;;;;;5094155;27;99699;-78
2021/12/31 11:25:51;;;;;;;5.47;4.47;;;;;;;;;;5081901;27;99661;-77
2021/12/31 11:28:23;;;;;;;6.53;4.57;;;;;;;;;;5094364;27;99288;-76
2021/12/31 11:30:49;;;;;;;8.02;4.63;;;;;;;;;;5093849;27;99505;-78
2021/12/31 11:33:20;;;;;;;4.50;4.10;;;;;;;;;;5093744;27;98339;-76
2021/12/31 11:36:05;;;;;;;8.30;4.75;;;;;;;;;;5092780;27;100722;-76
2021/12/31 11:38:31;;;;;;;9.48;4.47;;;;;;;;;;5093255;27;99705;-76
2021/12/31 11:41:02;;;;;;;5.35;4.13;;;;;;;;;;5093584;27;98405;-77
2021/12/31 11:43:29;;;;;;;5.95;4.20;;;;;;;;;;5075092;27;101896;-76
2021/12/31 11:46:19;;;;;;;6.68;4.28;;;;;;;;;;5093121;27;99743;-76
2021/12/31 11:51:16;;;;;;;10.68;4.70;;;;;;;;;;5092949;27;99939;-76
2021/12/31 11:53:58;;;;;;;9.18;4.72;;;;;;;;;;5077364;27;97788;-75
2021/12/31 11:56:34;;;;;;;6.95;4.50;;;;;;;;;;5065178;27;98910;-77
2021/12/31 11:59:21;;;;;;;9.38;4.35;;;;;;;;;;5055684;27;99059;-76
2021/12/31 12:02:07;;;;;;;8.35;4.35;;;;;;;;;;5041291;27;99101;-76
2021/12/31 12:04:38;;;;;;;12.00;4.50;;;;;;;;;;5055845;27;100299;-77
2021/12/31 12:07:10;;;;;;;5.25;4.05;;;;;;;;;;5054920;27;99700;-76
2021/12/31 12:09:36;;;;;;;7.60;4.47;;;;;;;;;;5059230;27;98327;-76
2021/12/31 12:12:15;;;;;;;9.20;4.40;;;;;;;;;;5055436;27;99145;-76
2021/12/31 12:14:42;;;;;;;6.15;4.60;;;;;;;;;;5037131;27;98559;-77
2021/12/31 12:17:10;;;;;;;10.55;4.75;;;;;;;;;;5056002;27;98407;-76
2021/12/31 12:19:51;;;;;;;9.43;4.60;;;;;;;;;;5055342;27;98792;-77
2021/12/31 12:22:27;;;;;;;7.30;4.13;;;;;;;;;;5037756;27;98434;-76
2021/12/31 12:24:55;;;;;;;6.03;4.20;;;;;;;;;;5055735;27;99363;-76
2021/12/31 12:27:22;;;;;;;5.65;3.67;;;;;;;;;;5054563;27;100433;-76
2021/12/31 12:29:49;;;;;;;7.38;3.97;;;;;;;;;;5055189;27;98369;-77
2021/12/31 12:32:19;;;;;;;5.30;3.75;;;;;;;;;;5058579;27;99849;-76
2021/12/31 12:34:45;;;;;;;9.35;4.18;;;;;;;;;;5060274;27;98425;-76
2021/12/31 12:37:12;;;;;;;9.20;4.50;;;;;;;;;;5094460;27;99420;-76
2021/12/31 12:39:38;;;;;;;6.22;3.60;;;;;;;;;;5095863;27;99720;-76
2021/12/31 12:42:07;;;;;;;7.95;4.18;;;;;;;;;;5096316;27;98334;-76
2021/12/31 12:44:33;;;;;;;7.07;3.90;;;;;;;;;;5096208;27;99299;-76
2021/12/31 12:47:00;;;;;;;6.40;3.70;;;;;;;;;;5095827;27;99585;-75
2021/12/31 12:49:27;;;;;;;6.70;4.15;;;;;;;;;;5096406;27;98441;-75
2021/12/31 12:51:55;;;;;;;7.40;4.32;;;;;;;;;;5095430;27;99498;-74
2021/12/31 12:54:22;;;;;;;12.98;3.58;;;;;;;;;;5077316;27;99539;-75
2021/12/31 12:56:50;;;;;;;6.43;3.80;;;;;;;;;;5075128;27;99400;-75
2021/12/31 12:59:21;;;;;;;11.57;4.32;;;;;;;;;;5056749;27;100952;-75
2021/12/31 13:01:49;;;;;;;9.75;3.70;;;;;;;;;;5075065;27;98497;-75
2021/12/31 13:04:17;;;;;;;8.90;4.07;;;;;;;;;;5074769;27;98839;-75
2021/12/31 13:07:07;;;;;;;7.68;3.58;;;;;;;;;;5074381;27;99978;-76
2021/12/31 13:09:34;;;;;;;7.05;4.60;;;;;;;;;;5075133;27;97669;-75
2021/12/31 13:12:02;;;;;;;9.10;4.82;;;;;;;;;;5075396;27;98715;-75
2021/12/31 13:14:29;;;;;;;10.35;5.05;;;;;;;;;;5074501;27;99540;-75
2021/12/31 13:16:57;;;;;;;10.73;4.47;;;;;;;;;;5077792;27;99146;-75
2021/12/31 13:19:28;;;;;;;11.70;5.15;;;;;;;;;;5074858;27;99074;-75
2021/12/31 13:21:59;;;;;;;11.57;5.13;;;;;;;;;;5074869;27;98844;-76
2021/12/31 13:24:26;;;;;;;8.50;4.75;;;;;;;;;;5056817;27;100067;-75
2021/12/31 13:26:55;;;;;;;9.55;4.90;;;;;;;;;;5074716;27;99769;-75
2021/12/31 13:29:34;;;;;;;10.40;4.45;;;;;;;;;;5074988;27;98338;-75
2021/12/31 13:32:20;;;;;;;8.70;4.97;;;;;;;;;;5074762;27;100141;-75
2021/12/31 13:34:47;;;;;;;7.00;5.35;;;;;;;;;;5074635;27;98886;-76
2021/12/31 13:37:23;;;;;;;7.30;5.13;;;;;;;;;;5075323;27;98419;-75
2021/12/31 13:40:02;;;;;;;9.30;5.45;;;;;;;;;;5077844;27;99402;-76
2021/12/31 13:42:29;;;;;;;8.23;6.40;;;;;;;;;;5074397;27;99113;-75
2021/12/31 13:44:55;;;;;;;7.03;5.72;;;;;;;;;;5081735;27;100114;-76
2021/12/31 13:47:25;;;;;;;12.73;5.97;;;;;;;;;;5062876;27;100484;-75
2021/12/31 13:49:53;;;;;;;11.25;6.13;;;;;;;;;;5079786;27;98261;-75
2021/12/31 13:52:26;;;;;;;13.43;6.40;;;;;;;;;;5077723;27;98979;-75
2021/12/31 13:54:54;;;;;;;16.38;6.40;;;;;;;;;;5074744;27;98264;-78
2021/12/31 13:57:25;;;;;;;9.77;6.90;;;;;;;;;;5074714;27;98364;-79
2021/12/31 13:59:52;;;;;;;13.77;7.75;;;;;;;;;;5034250;28;99056;-75
2021/12/31 14:02:22;;;;;;;7.82;6.13;;;;;;;;;;5031862;28;98536;-76
2021/12/31 14:04:54;;;;;;;10.60;6.22;;;;;;;;;;5031734;28;99060;-78
2021/12/31 14:07:29;;;;;;;11.85;7.22;;;;;;;;;;5031063;28;100023;-77
2021/12/31 14:09:57;;;;;;;14.57;7.00;;;;;;;;;;5031375;28;98466;-77
2021/12/31 14:12:29;;;;;;;10.35;6.85;;;;;;;;;;5032314;28;99161;-78
2021/12/31 14:14:56;;;;;;;13.23;7.35;;;;;;;;;;5030929;28;99417;-77
2021/12/31 14:17:22;;;;;;;15.90;8.00;;;;;;;;;;5031854;28;98335;-78
2021/12/31 14:19:49;;;;;;;12.85;7.82;;;;;;;;;;5031623;28;98707;-78
2021/12/31 14:22:15;;;;;;;12.55;7.30;;;;;;;;;;5034736;28;100501;-79
2021/12/31 14:24:41;;;;;;;19.42;7.60;;;;;;;;;;5031459;28;99660;-75
2021/12/31 14:27:08;;;;;;;11.73;7.85;;;;;;;;;;5014055;28;100800;-74
2021/12/31 14:29:35;;;;;;;15.57;8.75;;;;;;;;;;5031097;28;98621;-73
2021/12/31 14:32:04;;;;;;;11.73;7.85;;;;;;;;;;5070969;27;99435;-74
2021/12/31 14:34:32;;;;;;;17.35;10.10;;;;;;;;;;5073549;27;99692;-74
2021/12/31 14:37:07;;;;;;;17.30;10.68;;;;;;;;;;5054446;27;99313;-74
2021/12/31 14:39:35;;;;;;;16.17;8.70;;;;;;;;;;5073023;27;99618;-74
2021/12/31 14:42:02;;;;;;;13.02;7.25;;;;;;;;;;5073122;27;100826;-73
2021/12/31 14:44:29;;;;;;;17.00;7.85;;;;;;;;;;5077257;27;98194;-75
2021/12/31 14:46:56;;;;;;;16.77;7.50;;;;;;;;;;5073305;27;99413;-74
2021/12/31 14:49:23;;;;;;;16.80;7.88;;;;;;;;;;5074464;27;97609;-74